Time;durP1;ratioP1;P1;durP2;ratioP2;P2;SDS_P1;SDS_P2;PMS_P1;PMS_P2;Temp;Humidity;BMP_temperature;BMP_pressure;BME280_temperature;BME280_humidity;BME280_pressure;Samples;Min_cycle;Max_cycle;Signal;HPM_P1;HPM_P2
2021/05/14 00:01:50;;;;;;;9.85;6.28;;;;;;;20.59;33.60;100989.28;4972995;28;20035;-76
2021/05/14 00:04:19;;;;;;;10.68;7.15;;;;;;;20.57;33.77;100994.41;4974319;28;20030;-75
2021/05/14 00:06:47;;;;;;;8.63;6.15;;;;;;;20.59;33.82;100989.28;4973948;28;20133;-75
2021/05/14 00:09:14;;;;;;;7.72;6.35;;;;;;;20.60;33.88;100985.34;4972963;28;20033;-78
2021/05/14 00:11:40;;;;;;;11.63;8.27;;;;;;;20.53;33.91;100986.03;4974004;28;20516;-78
2021/05/14 00:14:07;;;;;;;13.25;9.23;;;;;;;20.48;34.12;100983.59;4974100;28;20059;-75
2021/05/14 00:16:33;;;;;;;14.52;7.13;;;;;;;20.43;34.04;100983.88;4974199;28;20027;-75
2021/05/14 00:18:59;;;;;;;9.60;5.93;;;;;;;20.40;33.92;100981.84;4973692;28;20499;-75
2021/05/14 00:21:28;;;;;;;8.52;5.50;;;;;;;20.29;33.86;100983.66;4973992;28;20477;-76
2021/05/14 00:23:54;;;;;;;7.65;5.55;;;;;;;20.19;33.61;100983.13;4973943;28;20046;-77
2021/05/14 00:26:21;;;;;;;8.80;6.28;;;;;;;20.17;33.60;100984.66;4973934;28;20070;-75
2021/05/14 00:28:46;;;;;;;12.45;8.60;;;;;;;20.16;33.79;100983.06;4973910;28;20437;-78
2021/05/14 00:31:12;;;;;;;14.85;9.70;;;;;;;20.15;33.74;100973.13;4973849;28;20098;-75
2021/05/14 00:33:38;;;;;;;12.45;9.07;;;;;;;20.17;33.96;100976.31;4973688;28;20030;-76
2021/05/14 00:36:04;;;;;;;10.73;8.20;;;;;;;20.23;33.79;100974.84;4973850;28;20113;-78
2021/05/14 00:38:30;;;;;;;10.98;7.70;;;;;;;20.26;33.92;100979.66;4973749;28;20367;-78
2021/05/14 00:40:56;;;;;;;12.65;9.23;;;;;;;20.19;33.96;100971.22;4973590;28;20102;-78
2021/05/14 00:43:21;;;;;;;11.90;8.23;;;;;;;20.16;33.92;100967.22;4973580;28;20030;-78
2021/05/14 00:45:47;;;;;;;8.95;7.55;;;;;;;20.19;34.07;100974.00;4973725;28;20018;-74
2021/05/14 00:48:13;;;;;;;12.35;7.97;;;;;;;20.18;33.91;100973.19;4974605;28;20023;-75
2021/05/14 00:50:38;;;;;;;7.88;6.65;;;;;;;20.17;33.90;100976.31;4980144;28;20038;-76
2021/05/14 00:53:04;;;;;;;9.57;7.43;;;;;;;20.11;33.73;100973.09;4980113;28;20524;-77
2021/05/14 00:55:30;;;;;;;9.35;6.85;;;;;;;19.93;33.96;100971.97;4979041;28;20397;-76
2021/05/14 00:57:57;;;;;;;12.45;7.32;;;;;;;19.96;33.95;100968.50;4979778;28;20031;-77
2021/05/14 01:00:23;;;;;;;12.73;8.52;;;;;;;19.96;33.86;100965.72;4980010;28;20033;-76
2021/05/14 01:02:51;;;;;;;9.85;6.72;;;;;;;19.90;34.03;100956.91;4980013;28;20508;-76
2021/05/14 01:05:18;;;;;;;9.57;7.15;;;;;;;19.82;33.95;100960.72;4979603;28;20023;-77
2021/05/14 01:07:43;;;;;;;13.70;8.57;;;;;;;19.77;34.07;100955.47;4979955;28;20034;-75
2021/05/14 01:10:09;;;;;;;9.68;7.53;;;;;;;19.83;33.74;100951.22;4979985;28;20027;-75
2021/05/14 01:12:35;;;;;;;11.32;6.88;;;;;;;19.80;34.01;100968.63;4979963;28;20529;-78
2021/05/14 01:15:00;;;;;;;9.85;7.25;;;;;;;19.67;34.19;100950.56;4979925;28;20139;-75
2021/05/14 01:17:26;;;;;;;9.20;6.32;;;;;;;19.66;33.96;100946.19;4979929;28;20061;-76
2021/05/14 01:19:52;;;;;;;12.43;8.70;;;;;;;19.56;34.01;100950.31;4978744;28;20038;-76
2021/05/14 01:22:19;;;;;;;12.75;8.85;;;;;;;19.48;34.19;100945.03;4979777;28;20034;-76
2021/05/14 01:24:45;;;;;;;14.45;8.55;;;;;;;19.51;33.82;100947.09;4979841;28;20035;-77
2021/05/14 01:27:10;;;;;;;13.23;9.73;;;;;;;19.47;33.84;100943.44;4978230;28;20050;-75
2021/05/14 01:29:36;;;;;;;13.15;8.93;;;;;;;19.34;33.98;100951.09;4979786;28;20062;-76
2021/05/14 01:32:02;;;;;;;19.20;9.27;;;;;;;19.32;33.94;100950.69;4978425;28;20034;-75
2021/05/14 01:34:28;;;;;;;10.95;7.85;;;;;;;19.25;34.02;100956.88;4979811;28;20026;-75
2021/05/14 01:36:53;;;;;;;10.90;7.57;;;;;;;19.20;34.18;100946.13;4979633;28;20042;-75
2021/05/14 01:39:23;;;;;;;11.52;8.32;;;;;;;19.28;33.98;100949.81;4979738;28;20059;-74
2021/05/14 01:41:49;;;;;;;15.00;8.52;;;;;;;19.25;34.17;100948.56;4978376;28;20038;-77
2021/05/14 01:44:15;;;;;;;10.15;7.53;;;;;;;19.21;33.97;100946.91;4978364;28;20027;-75
2021/05/14 01:46:41;;;;;;;11.40;7.53;;;;;;;19.17;34.03;100952.38;4979573;28;20536;-74
2021/05/14 01:49:06;;;;;;;8.75;7.15;;;;;;;19.15;34.02;100949.16;4978259;28;20031;-74
2021/05/14 01:51:33;;;;;;;9.40;6.80;;;;;;;19.12;33.72;100941.59;4979360;28;20085;-78
2021/05/14 01:53:59;;;;;;;11.88;7.65;;;;;;;19.15;33.73;100946.41;4979673;28;20421;-75
2021/05/14 01:56:24;;;;;;;11.45;8.20;;;;;;;19.17;33.75;100940.50;4979490;28;20504;-75
2021/05/14 01:58:51;;;;;;;11.82;8.07;;;;;;;19.09;33.92;100945.09;4979656;28;20024;-75
2021/05/14 02:01:17;;;;;;;13.10;7.88;;;;;;;19.11;33.95;100934.44;4975058;28;20429;-77
2021/05/14 02:03:43;;;;;;;9.15;7.28;;;;;;;19.05;33.73;100935.94;4974317;28;20034;-75
2021/05/14 02:06:09;;;;;;;9.85;7.65;;;;;;;18.96;33.98;100938.09;4976336;28;20111;-75
2021/05/14 02:08:35;;;;;;;12.95;8.35;;;;;;;18.95;33.77;100936.50;4976472;28;20386;-75
2021/05/14 02:11:03;;;;;;;13.68;8.80;;;;;;;18.88;34.13;100941.88;4976273;28;20470;-76
2021/05/14 02:13:28;;;;;;;9.52;7.80;;;;;;;18.91;33.81;100939.22;4975949;28;20062;-75
2021/05/14 02:15:54;;;;;;;9.68;7.05;;;;;;;18.86;34.12;100933.94;4976089;28;20058;-75
2021/05/14 02:18:20;;;;;;;8.65;6.57;;;;;;;18.92;33.80;100934.47;4974097;28;20042;-75
2021/05/14 02:20:45;;;;;;;11.63;7.85;;;;;;;18.83;34.05;100931.94;4990570;28;20033;-78
2021/05/14 02:23:11;;;;;;;7.57;6.60;;;;;;;18.82;33.88;100928.34;4988571;28;20056;-75
2021/05/14 02:25:37;;;;;;;8.30;6.30;;;;;;;18.81;33.71;100932.25;4976036;28;20146;-77
2021/05/14 02:28:03;;;;;;;7.95;5.72;;;;;;;18.74;33.63;100926.59;4975950;28;20065;-75
2021/05/14 02:30:29;;;;;;;9.80;6.82;;;;;;;18.70;33.77;100922.94;4975971;28;20034;-75
2021/05/14 02:32:54;;;;;;;12.02;6.13;;;;;;;18.63;33.58;100922.78;4975893;28;20038;-75
2021/05/14 02:35:20;;;;;;;7.57;6.43;;;;;;;18.60;33.64;100931.81;4974778;28;20041;-77
2021/05/14 02:37:46;;;;;;;8.68;6.80;;;;;;;18.62;33.90;100923.94;4975024;28;20111;-78
2021/05/14 02:40:12;;;;;;;10.25;6.90;;;;;;;18.67;33.73;100920.91;4975185;28;20030;-75
2021/05/14 02:42:38;;;;;;;9.05;7.00;;;;;;;18.63;33.69;100924.75;4975705;28;20130;-78
2021/05/14 02:45:05;;;;;;;11.05;6.68;;;;;;;18.62;33.92;100923.94;4975725;28;20553;-75
2021/05/14 02:47:31;;;;;;;7.80;6.40;;;;;;;18.56;34.07;100925.38;4974303;28;20031;-75
2021/05/14 02:49:57;;;;;;;7.75;6.75;;;;;;;18.42;33.74;100925.88;4975662;28;20031;-76
2021/05/14 02:52:23;;;;;;;7.85;6.65;;;;;;;18.38;33.77;100925.00;4975546;28;20027;-75
2021/05/14 02:54:48;;;;;;;9.43;7.70;;;;;;;18.36;33.56;100929.28;4975490;28;20035;-74
2021/05/14 02:57:14;;;;;;;11.77;6.47;;;;;;;18.37;33.84;100928.13;4974270;28;20039;-74
2021/05/14 02:59:39;;;;;;;8.27;6.70;;;;;;;18.36;33.83;100924.53;4975167;28;20030;-74
2021/05/14 03:02:07;;;;;;;8.15;6.25;;;;;;;18.34;33.58;100923.31;4975429;28;20031;-75
2021/05/14 03:04:32;;;;;;;7.93;6.82;;;;;;;18.30;33.80;100928.78;4974134;28;20433;-75
2021/05/14 03:06:58;;;;;;;10.43;6.43;;;;;;;18.20;33.91;100935.66;4974563;28;20086;-78
2021/05/14 03:09:24;;;;;;;7.07;5.70;;;;;;;18.19;33.70;100934.03;4975208;28;20465;-77
2021/05/14 03:11:49;;;;;;;7.93;6.35;;;;;;;18.12;33.72;100930.31;4974186;28;20031;-76
2021/05/14 03:14:15;;;;;;;7.15;5.72;;;;;;;18.03;33.75;100933.28;4974841;28;20035;-77
2021/05/14 03:16:41;;;;;;;9.15;6.53;;;;;;;17.97;33.64;100932.72;4975169;28;20031;-77
2021/05/14 03:19:06;;;;;;;11.85;7.25;;;;;;;17.96;33.94;100933.09;4974979;28;20027;-75
2021/05/14 03:21:32;;;;;;;13.73;9.13;;;;;;;18.09;33.69;100931.03;4974683;28;20069;-76
2021/05/14 03:23:59;;;;;;;11.93;9.90;;;;;;;18.10;33.93;100938.97;4975081;28;20034;-78
2021/05/14 03:26:25;;;;;;;18.70;9.95;;;;;;;18.14;33.93;100937.09;4974877;28;20031;-76
2021/05/14 03:28:51;;;;;;;11.88;8.90;;;;;;;18.11;34.02;100931.47;4975011;28;20058;-76
2021/05/14 03:31:17;;;;;;;12.98;7.82;;;;;;;18.14;34.05;100937.09;4975001;28;20026;-75
2021/05/14 03:33:42;;;;;;;8.35;7.03;;;;;;;18.11;34.25;100937.81;4974644;28;20057;-77
2021/05/14 03:36:08;;;;;;;11.05;7.43;;;;;;;18.12;34.18;100928.34;4974757;28;20038;-74
2021/05/14 03:38:34;;;;;;;8.18;6.05;;;;;;;18.09;34.17;100934.59;4974690;28;20030;-78
2021/05/14 03:41:02;;;;;;;8.23;6.25;;;;;;;18.06;34.27;100940.88;4974579;28;20031;-75
2021/05/14 03:43:28;;;;;;;7.07;5.82;;;;;;;18.05;34.15;100944.75;4973322;28;20031;-75
2021/05/14 03:45:54;;;;;;;9.43;6.88;;;;;;;18.00;34.01;100931.25;4974314;28;20417;-76
2021/05/14 03:48:20;;;;;;;9.10;7.07;;;;;;;17.94;34.19;100932.66;4974443;28;20038;-75
2021/05/14 03:50:48;;;;;;;11.57;8.30;;;;;;;17.97;34.38;100931.94;4973305;28;20504;-78
2021/05/14 03:53:13;;;;;;;10.13;7.85;;;;;;;18.01;34.32;100928.09;4973323;28;20039;-75
2021/05/14 03:55:39;;;;;;;11.10;8.75;;;;;;;18.05;34.24;100924.63;4973247;28;20027;-77
2021/05/14 03:58:05;;;;;;;10.43;8.00;;;;;;;17.93;34.34;100922.78;4974567;28;20262;-75
2021/05/14 04:00:31;;;;;;;10.98;8.50;;;;;;;17.95;34.30;100925.97;4974356;28;20022;-77
2021/05/14 04:02:56;;;;;;;15.68;9.57;;;;;;;17.89;34.41;100924.63;4974190;28;20031;-78
2021/05/14 04:05:23;;;;;;;10.32;7.85;;;;;;;17.94;34.41;100925.16;4974133;28;20058;-76
2021/05/14 04:07:48;;;;;;;10.77;7.85;;;;;;;17.89;34.51;100910.81;4973906;28;20089;-75
2021/05/14 04:10:20;;;;;;;9.45;8.13;;;;;;;17.86;34.17;100915.09;4974015;28;20482;-78
2021/05/14 04:15:29;;;;;;;10.82;7.97;;;;;;;17.78;34.26;100913.31;4974187;28;20492;-78
2021/05/14 04:17:55;;;;;;;13.55;8.55;;;;;;;17.73;34.35;100919.91;4974204;28;20034;-78
2021/05/14 04:20:21;;;;;;;10.07;6.97;;;;;;;17.75;34.49;100920.34;4973977;28;20046;-75
2021/05/14 04:22:46;;;;;;;10.20;7.10;;;;;;;17.74;34.42;100918.75;4973781;28;20466;-77
2021/05/14 04:25:12;;;;;;;7.63;5.90;;;;;;;17.66;34.56;100916.94;4973879;28;20030;-74
2021/05/14 04:27:38;;;;;;;8.45;7.00;;;;;;;17.71;34.37;100919.47;4973844;28;20041;-78
2021/05/14 04:30:04;;;;;;;11.70;8.18;;;;;;;17.69;34.23;100926.50;4973533;28;20034;-78
2021/05/14 04:32:30;;;;;;;12.98;7.47;;;;;;;17.59;34.57;100915.97;4973872;28;20027;-77
2021/05/14 04:34:55;;;;;;;10.00;7.68;;;;;;;17.63;34.49;100917.66;4973764;28;20109;-75
2021/05/14 04:37:21;;;;;;;11.73;8.63;;;;;;;17.62;34.47;100920.78;4973863;28;20031;-76
2021/05/14 04:39:46;;;;;;;12.27;7.35;;;;;;;17.61;34.36;100921.94;4973887;28;20497;-75
2021/05/14 04:42:12;;;;;;;9.32;6.90;;;;;;;17.57;34.57;100923.81;4973633;28;20038;-75
2021/05/14 04:44:38;;;;;;;24.20;9.90;;;;;;;17.43;34.35;100927.00;4973732;28;20437;-74
2021/05/14 04:47:03;;;;;;;12.68;9.45;;;;;;;17.48;34.38;100932.28;4973624;28;20031;-75
2021/05/14 04:49:29;;;;;;;11.73;8.32;;;;;;;17.39;34.82;100932.44;4973674;28;20351;-77
2021/05/14 04:51:55;;;;;;;32.25;11.77;;;;;;;17.34;34.94;100935.44;4973715;28;20109;-75
2021/05/14 04:54:21;;;;;;;12.63;8.65;;;;;;;17.46;34.78;100934.59;4973181;28;20031;-77
2021/05/14 04:56:46;;;;;;;14.65;8.05;;;;;;;17.46;34.65;100929.06;4973522;28;20039;-75
2021/05/14 04:59:12;;;;;;;13.23;7.65;;;;;;;17.53;34.68;100931.19;4973667;28;20026;-75
2021/05/14 05:01:40;;;;;;;10.93;7.35;;;;;;;17.48;34.58;100926.75;4973641;28;20086;-77
2021/05/14 05:04:05;;;;;;;13.52;7.75;;;;;;;17.55;34.50;100929.69;4973571;28;20092;-76
2021/05/14 05:06:32;;;;;;;9.40;7.07;;;;;;;17.57;34.56;100932.91;4972094;28;20047;-76
2021/05/14 05:08:59;;;;;;;11.50;7.93;;;;;;;17.54;34.78;100932.81;4972359;28;20384;-75
2021/05/14 05:11:24;;;;;;;11.65;7.28;;;;;;;17.50;34.79;100929.94;4973519;28;20070;-76
2021/05/14 05:13:50;;;;;;;12.02;7.20;;;;;;;17.48;34.76;100932.28;4972357;28;20054;-76
2021/05/14 05:16:15;;;;;;;11.23;7.57;;;;;;;17.54;34.76;100927.28;4973090;28;20117;-75
2021/05/14 05:18:41;;;;;;;12.32;7.20;;;;;;;17.49;34.70;100925.59;4973542;28;20026;-78
2021/05/14 05:21:07;;;;;;;9.40;6.03;;;;;;;17.46;35.04;100923.53;4972127;28;20117;-77
2021/05/14 05:23:32;;;;;;;14.73;7.55;;;;;;;17.43;35.18;100924.25;4973551;28;20027;-75
2021/05/14 05:25:58;;;;;;;9.55;7.43;;;;;;;17.62;35.11;100918.03;4973358;28;20470;-75
2021/05/14 05:28:30;;;;;;;17.50;8.35;;;;;;;17.56;35.14;100909.19;4973301;28;20050;-75
2021/05/14 05:30:56;;;;;;;10.73;7.72;;;;;;;17.60;35.54;100925.84;4973370;28;20027;-77
2021/05/14 05:33:22;;;;;;;10.30;6.57;;;;;;;17.65;35.50;100922.81;4973286;28;20544;-75
2021/05/14 05:35:48;;;;;;;9.32;5.93;;;;;;;18.00;34.91;100923.75;4974661;28;20100;-77
2021/05/14 05:38:15;;;;;;;15.13;7.10;;;;;;;18.15;35.08;100929.63;4976810;28;20034;-75
2021/05/14 05:40:40;;;;;;;10.95;8.23;;;;;;;18.43;35.07;100927.47;4976619;28;20027;-76
2021/05/14 05:43:06;;;;;;;9.52;6.75;;;;;;;18.48;35.30;100929.16;4976871;28;20371;-74
2021/05/14 05:45:32;;;;;;;10.52;7.38;;;;;;;18.76;35.19;100934.53;4976661;28;20027;-76
2021/05/14 05:47:57;;;;;;;8.63;6.20;;;;;;;19.07;34.77;100933.59;4974714;28;20556;-76
2021/05/14 05:50:23;;;;;;;12.50;6.30;;;;;;;19.16;34.87;100930.59;4976257;28;20027;-77
2021/05/14 05:52:51;;;;;;;10.98;6.28;;;;;;;19.31;35.06;100929.69;4976739;28;20132;-75
2021/05/14 05:55:17;;;;;;;11.05;5.85;;;;;;;19.51;34.71;100930.44;4976635;28;20446;-78
2021/05/14 05:57:42;;;;;;;13.73;6.95;;;;;;;19.64;34.73;100929.09;4975795;28;20076;-77
2021/05/14 06:00:09;;;;;;;13.63;7.40;;;;;;;19.49;35.11;100933.56;4973547;28;20035;-75
2021/05/14 06:02:34;;;;;;;9.43;6.50;;;;;;;19.75;34.71;100934.84;4966407;28;20023;-77
2021/05/14 06:05:00;;;;;;;12.05;7.63;;;;;;;19.76;35.14;100937.25;4966370;28;20077;-77
2021/05/14 06:07:25;;;;;;;17.70;9.98;;;;;;;19.89;35.02;100935.88;4964418;28;20043;-77
2021/05/14 06:09:51;;;;;;;11.20;8.02;;;;;;;20.10;34.88;100937.38;4957524;28;20047;-77
2021/05/14 06:12:16;;;;;;;12.50;8.38;;;;;;;19.99;35.36;100928.09;4958532;28;20023;-76
2021/05/14 06:14:42;;;;;;;16.65;9.20;;;;;;;20.00;35.62;100936.03;4958974;28;20042;-77
2021/05/14 06:17:11;;;;;;;15.38;9.43;;;;;;;20.18;35.48;100937.13;4958598;28;20031;-76
2021/05/14 06:19:44;;;;;;;21.75;9.55;;;;;;;20.07;35.78;100935.38;4957784;28;20097;-75
2021/05/14 06:22:11;;;;;;;13.25;9.15;;;;;;;20.31;35.60;100936.91;4957881;28;20046;-75
2021/05/14 06:24:36;;;;;;;12.98;8.90;;;;;;;20.37;35.92;100941.75;4957325;28;20030;-76
2021/05/14 06:27:02;;;;;;;14.07;9.32;;;;;;;20.74;35.55;100947.47;4956410;28;20493;-76
2021/05/14 06:29:27;;;;;;;15.52;10.93;;;;;;;20.85;35.78;100946.78;4956676;28;20027;-76
2021/05/14 06:31:53;;;;;;;16.25;9.88;;;;;;;21.06;35.63;100947.03;4957696;28;20023;-76
2021/05/14 06:34:18;;;;;;;30.92;15.10;;;;;;;21.09;36.08;100953.84;4957956;28;20478;-76
2021/05/14 06:36:44;;;;;;;21.98;11.77;;;;;;;21.45;35.57;100952.25;4956388;28;20035;-76
2021/05/14 06:39:10;;;;;;;25.73;12.25;;;;;;;21.43;36.15;100944.31;4958407;28;20073;-76
2021/05/14 06:41:35;;;;;;;23.02;11.07;;;;;;;21.76;35.94;100948.19;4956930;28;20062;-76
2021/05/14 06:44:01;;;;;;;14.07;10.10;;;;;;;22.04;35.39;100944.84;4963533;28;20031;-76
2021/05/14 06:46:26;;;;;;;12.68;9.02;;;;;;;21.71;36.29;100941.00;4969074;28;20175;-76
2021/05/14 06:48:52;;;;;;;17.85;11.18;;;;;;;22.06;35.35;100948.81;4975604;28;20026;-76
2021/05/14 06:51:18;;;;;;;14.55;10.35;;;;;;;22.15;35.41;100946.56;4977445;28;20440;-77
2021/05/14 06:53:44;;;;;;;15.70;11.88;;;;;;;22.20;35.72;100942.59;4972551;28;20065;-77
2021/05/14 06:56:09;;;;;;;16.10;9.93;;;;;;;22.20;35.90;100941.78;4969870;28;20061;-77
2021/05/14 06:58:35;;;;;;;16.40;10.65;;;;;;;22.42;35.48;100937.97;4971126;28;20110;-75
2021/05/14 07:01:00;;;;;;;21.80;12.23;;;;;;;22.43;35.68;100937.56;4973977;28;20389;-76
2021/05/14 07:03:26;;;;;;;16.35;11.15;;;;;;;22.61;35.72;100934.91;4961395;28;20054;-75
2021/05/14 07:05:51;;;;;;;18.27;11.50;;;;;;;22.70;35.71;100942.88;4964818;28;20050;-75
2021/05/14 07:08:17;;;;;;;21.17;11.18;;;;;;;22.87;35.59;100947.75;4965594;28;20047;-75
2021/05/14 07:10:42;;;;;;;16.88;11.93;;;;;;;22.83;35.75;100946.16;4964638;28;20061;-74
2021/05/14 07:13:08;;;;;;;17.25;12.10;;;;;;;23.17;35.35;100952.25;4963805;28;20035;-74
2021/05/14 07:15:33;;;;;;;26.80;12.25;;;;;;;23.31;35.28;100945.91;4963213;28;20026;-75
2021/05/14 07:18:00;;;;;;;22.10;10.90;;;;;;;23.42;35.33;100943.94;4964965;28;20023;-74
2021/05/14 07:20:26;;;;;;;18.77;11.25;;;;;;;23.52;35.12;100940.38;4963071;28;20030;-74
2021/05/14 07:22:52;;;;;;;17.55;11.98;;;;;;;23.63;35.16;100940.41;4962851;28;20378;-75
2021/05/14 07:25:18;;;;;;;18.33;10.55;;;;;;;23.64;35.29;100940.00;4965393;28;20038;-76
2021/05/14 07:27:43;;;;;;;16.13;9.30;;;;;;;23.77;35.35;100935.66;4963766;28;20131;-76
2021/05/14 07:30:11;;;;;;;17.85;10.32;;;;;;;23.79;35.40;100932.44;4963676;28;20023;-76
2021/05/14 07:32:37;;;;;;;22.48;11.40;;;;;;;23.85;35.50;100930.06;4963087;28;20105;-76
2021/05/14 07:35:03;;;;;;;16.05;10.40;;;;;;;24.08;35.03;100924.88;4960181;28;20644;-76
2021/05/14 07:37:29;;;;;;;13.43;8.80;;;;;;;24.11;34.87;100923.25;4954987;28;20034;-77
2021/05/14 07:39:55;;;;;;;15.35;8.40;;;;;;;24.17;34.83;100930.81;4957428;28;20363;-77
2021/05/14 07:42:20;;;;;;;23.63;10.18;;;;;;;24.18;34.76;100918.50;4955246;28;21568;-77
2021/05/14 07:44:46;;;;;;;21.38;11.27;;;;;;;24.40;34.32;100918.44;4957916;28;20031;-77
2021/05/14 07:47:12;;;;;;;11.55;7.68;;;;;;;24.49;34.31;100916.06;4958118;28;20437;-76
2021/05/14 07:49:38;;;;;;;11.77;8.75;;;;;;;24.63;34.25;100910.38;4957568;28;20037;-76
2021/05/14 07:52:03;;;;;;;11.18;9.38;;;;;;;24.76;34.19;100917.13;4956598;28;20031;-77
2021/05/14 07:54:29;;;;;;;18.63;11.40;;;;;;;24.78;34.11;100913.91;4956579;28;20504;-77
2021/05/14 07:56:55;;;;;;;14.23;9.13;;;;;;;24.64;34.19;100909.22;4957311;28;20034;-77
2021/05/14 07:59:21;;;;;;;16.92;10.40;;;;;;;24.67;33.69;100907.59;4957397;28;20019;-77
2021/05/14 08:01:47;;;;;;;16.42;9.52;;;;;;;24.69;34.02;100908.78;4955874;28;20093;-77
2021/05/14 08:04:12;;;;;;;13.60;9.25;;;;;;;24.89;33.40;100915.47;4957123;28;20073;-76
2021/05/14 08:06:38;;;;;;;23.77;9.75;;;;;;;24.72;33.82;100918.34;4961951;28;20055;-77
2021/05/14 08:09:07;;;;;;;15.85;8.60;;;;;;;24.94;33.77;100914.28;4963046;28;20030;-76
2021/05/14 08:11:33;;;;;;;14.52;7.72;;;;;;;24.88;33.63;100927.88;4962522;28;20402;-77
2021/05/14 08:13:58;;;;;;;15.05;8.50;;;;;;;24.95;33.54;100918.66;4962477;28;20038;-77
2021/05/14 08:16:24;;;;;;;16.05;8.60;;;;;;;25.17;33.34;100914.56;4962821;28;20030;-76
2021/05/14 08:18:51;;;;;;;11.68;7.50;;;;;;;25.13;33.20;100916.56;4963224;28;20031;-76
2021/05/14 08:21:19;;;;;;;22.33;9.90;;;;;;;25.28;32.90;100916.50;4962917;28;20073;-76
2021/05/14 08:23:44;;;;;;;12.07;6.55;;;;;;;25.26;32.64;100925.28;4963119;28;20094;-76
2021/05/14 08:26:11;;;;;;;21.52;8.50;;;;;;;25.29;32.46;100916.06;4963114;28;20062;-76
2021/05/14 08:28:36;;;;;;;11.23;6.65;;;;;;;25.26;32.93;100916.09;4961521;28;20030;-76
2021/05/14 08:31:02;;;;;;;14.32;7.28;;;;;;;25.42;32.22;100908.78;4962588;28;20025;-76
2021/05/14 08:33:28;;;;;;;13.40;7.28;;;;;;;25.44;31.90;100914.78;4962240;28;20023;-77
2021/05/14 08:35:54;;;;;;;19.40;7.78;;;;;;;25.43;32.17;100913.19;4962111;28;20381;-77
2021/05/14 08:38:19;;;;;;;14.10;7.75;;;;;;;25.72;31.44;100919.38;4962395;28;20109;-77
2021/05/14 08:40:46;;;;;;;12.32;6.03;;;;;;;25.68;31.77;100907.38;4963088;28;20075;-77
2021/05/14 08:43:12;;;;;;;8.57;6.07;;;;;;;25.78;31.47;100916.16;4962085;28;20110;-76
2021/05/14 08:45:39;;;;;;;8.68;5.75;;;;;;;25.91;30.75;100900.41;4962914;28;20034;-76
2021/05/14 08:48:11;;;;;;;31.05;8.27;;;;;;;25.84;30.80;100901.28;4962322;28;20031;-76
2021/05/14 08:50:38;;;;;;;15.13;7.60;;;;;;;25.72;31.25;100901.81;4961493;28;20398;-76
2021/05/14 08:53:04;;;;;;;16.98;7.78;;;;;;;25.74;31.08;100890.97;4962218;28;20035;-76
2021/05/14 08:55:30;;;;;;;11.40;6.10;;;;;;;25.69;31.00;100889.41;4955549;28;20058;-76
2021/05/14 08:57:55;;;;;;;6.70;5.55;;;;;;;25.95;30.93;100887.19;4959353;28;20077;-74
2021/05/14 09:00:22;;;;;;;10.63;6.68;;;;;;;25.78;31.05;100883.38;4957070;28;20027;-76
2021/05/14 09:02:48;;;;;;;8.13;5.72;;;;;;;26.03;30.78;100893.53;4960803;28;20023;-77
2021/05/14 09:05:32;;;;;;;9.23;6.13;;;;;;;26.00;30.45;100883.97;4961850;28;20030;-76
2021/05/14 09:07:59;;;;;;;6.95;5.15;;;;;;;26.12;30.56;100891.03;4960294;28;20134;-77
2021/05/14 09:10:27;;;;;;;10.63;5.43;;;;;;;26.39;30.24;100880.75;4962404;28;20414;-76
2021/05/14 09:12:53;;;;;;;11.98;5.65;;;;;;;26.46;30.04;100891.88;4965904;28;20027;-76
2021/05/14 09:15:34;;;;;;;11.15;5.57;;;;;;;26.52;29.95;100878.97;4964632;28;20035;-76
2021/05/14 09:18:03;;;;;;;10.48;5.10;;;;;;;26.73;29.60;100885.53;4963421;28;20473;-76
2021/05/14 09:20:53;;;;;;;10.63;5.85;;;;;;;26.79;29.32;100879.06;4962623;28;20023;-77
2021/05/14 09:23:24;;;;;;;13.40;6.18;;;;;;;26.84;28.93;100886.22;4956666;28;20394;-76
2021/05/14 09:25:55;;;;;;;12.45;5.60;;;;;;;26.95;28.95;100880.44;4960806;28;20228;-76
2021/05/14 09:28:22;;;;;;;21.48;6.68;;;;;;;26.98;29.18;100868.38;4966219;28;20070;-76
2021/05/14 09:30:58;;;;;;;11.95;5.72;;;;;;;27.01;28.68;100878.75;4965298;28;20035;-76
2021/05/14 09:33:28;;;;;;;9.30;5.25;;;;;;;26.86;28.91;100871.75;4963356;28;20116;-76
2021/05/14 09:36:01;;;;;;;9.82;5.20;;;;;;;26.91;28.28;100874.09;4966322;28;20096;-76
2021/05/14 09:38:27;;;;;;;10.32;4.90;;;;;;;27.02;28.65;100875.53;4965271;28;20045;-75
2021/05/14 09:40:54;;;;;;;12.50;4.93;;;;;;;27.09;28.25;100861.44;4965805;28;20478;-75
2021/05/14 09:43:23;;;;;;;9.73;5.20;;;;;;;27.07;28.27;100863.09;4965475;28;20035;-76
2021/05/14 09:45:49;;;;;;;14.00;5.70;;;;;;;27.06;28.53;100861.50;4963464;28;20034;-76
2021/05/14 09:48:15;;;;;;;13.15;6.05;;;;;;;26.90;28.57;100859.28;4963724;28;20039;-76
2021/05/14 09:50:46;;;;;;;9.63;4.90;;;;;;;26.87;28.53;100850.94;4965539;28;20073;-76
2021/05/14 09:53:13;;;;;;;10.27;4.93;;;;;;;26.77;28.58;100853.47;4964463;28;20034;-76
2021/05/14 09:55:44;;;;;;;7.55;4.72;;;;;;;26.87;28.41;100853.72;4962111;28;20042;-75
2021/05/14 09:58:18;;;;;;;7.90;4.30;;;;;;;27.00;28.06;100849.13;4964523;28;20027;-76
2021/05/14 10:00:44;;;;;;;14.45;5.43;;;;;;;26.96;28.31;100854.78;4962883;28;20402;-76
2021/05/14 10:03:13;;;;;;;6.47;4.22;;;;;;;26.85;28.46;100840.13;4962225;28;20027;-75
2021/05/14 10:05:40;;;;;;;7.90;4.93;;;;;;;26.97;28.50;100847.16;4964639;28;20486;-76
2021/05/14 10:08:06;;;;;;;9.82;4.18;;;;;;;26.93;28.39;100843.63;4965041;28;20051;-76
2021/05/14 10:10:36;;;;;;;11.68;4.93;;;;;;;26.87;28.09;100829.28;4964141;28;20379;-76
2021/05/14 10:13:03;;;;;;;75.30;12.80;;;;;;;27.01;28.13;100843.09;4965633;28;20042;-76
2021/05/14 10:15:31;;;;;;;11.32;4.90;;;;;;;26.83;28.23;100837.75;4965877;28;20049;-77
2021/05/14 10:17:58;;;;;;;8.02;4.95;;;;;;;26.85;28.58;100833.75;4965404;28;20024;-76
2021/05/14 10:20:28;;;;;;;8.27;4.15;;;;;;;27.04;28.28;100827.47;4965057;28;20490;-76
2021/05/14 10:22:54;;;;;;;8.18;4.20;;;;;;;26.99;28.00;100833.53;4964668;28;20074;-76
2021/05/14 10:25:48;;;;;;;8.30;3.90;;;;;;;26.93;28.21;100832.41;4962849;28;20446;-77
2021/05/14 10:28:23;;;;;;;12.75;4.55;;;;;;;26.97;27.95;100836.75;4963218;28;20083;-76
2021/05/14 10:30:58;;;;;;;8.25;4.40;;;;;;;26.99;28.05;100830.72;4965062;28;20110;-76
2021/05/14 10:33:43;;;;;;;11.25;4.70;;;;;;;26.85;28.50;100834.53;4965202;28;20516;-76
2021/05/14 10:36:14;;;;;;;30.75;7.93;;;;;;;26.77;28.76;100835.84;4964567;28;20027;-76
2021/05/14 10:38:40;;;;;;;8.55;4.43;;;;;;;27.08;28.24;100828.22;4966008;28;20081;-76
2021/05/14 10:41:26;;;;;;;9.73;4.13;;;;;;;27.03;28.36;100823.03;4964796;28;20866;-76
2021/05/14 10:44:07;;;;;;;8.40;3.97;;;;;;;27.12;28.53;100814.13;4965057;28;20045;-76
2021/05/14 10:46:34;;;;;;;10.95;4.85;;;;;;;27.24;28.19;100828.34;4964833;28;20022;-76
2021/05/14 10:48:59;;;;;;;12.55;5.15;;;;;;;27.10;28.24;100823.75;4964978;28;20022;-76
2021/05/14 10:51:44;;;;;;;6.30;4.03;;;;;;;26.80;28.73;100821.78;4963673;28;20030;-75
2021/05/14 10:54:09;;;;;;;12.68;4.60;;;;;;;27.30;28.09;100814.66;4965115;28;20027;-77
2021/05/14 10:56:48;;;;;;;6.47;4.13;;;;;;;27.12;28.15;100808.50;4965520;28;20434;-77
2021/05/14 10:59:14;;;;;;;6.30;4.40;;;;;;;27.46;27.79;100806.34;4965079;28;20501;-76
2021/05/14 11:01:42;;;;;;;7.75;4.00;;;;;;;27.28;27.84;100808.66;4964863;28;20051;-75
2021/05/14 11:04:13;;;;;;;8.27;4.20;;;;;;;27.24;27.90;100802.31;4964872;28;20031;-75
2021/05/14 11:06:44;;;;;;;10.45;5.07;;;;;;;27.46;27.59;100811.97;4964626;28;20053;-75
2021/05/14 11:09:12;;;;;;;13.23;5.05;;;;;;;27.47;27.61;100795.91;4965059;28;20027;-75
2021/05/14 11:12:06;;;;;;;11.18;4.95;;;;;;;27.27;27.32;100801.44;4975407;28;20106;-75
2021/05/14 11:14:51;;;;;;;9.82;4.70;;;;;;;27.48;26.96;100803.91;4973925;28;20031;-75
2021/05/14 11:17:19;;;;;;;8.80;4.75;;;;;;;27.48;27.19;100795.47;4973900;28;20109;-75
2021/05/14 11:19:50;;;;;;;14.88;4.50;;;;;;;27.61;26.93;100785.22;4975148;28;20034;-75
2021/05/14 11:22:36;;;;;;;7.70;3.65;;;;;;;27.59;26.80;100786.88;4973712;28;20113;-76